Aviation Services » Terminal Aerodrome Forecasts Friday, March 24, 2017
 Terminal Aerodrome Forecasts (TAF)

FTNV01 NVVV 232207
TAF COR NVSC 232315Z 2400/2424 09005KT 9999 SCT020 BKN110
INTER 2400/2406 9000 -SHRA BKN018=

TAF NVSG 232220Z 2400/2424 12006KT 9999 BKN020 =

TAF NVSS 232220Z 2400/2424 12006KT 9999 SCT020
INTER 2400/2406 9000 -SHRA BKN018=

TAF NVSL 232220Z 2400/2424 12010KT 9999 BKN020=

TAF NVVV 232220Z 2400/2424 12010KT 9999 FEW020=

TAF NVVW 232220Z 2400/2424 11010KT 9999 FEW020=

TAF NVVA 232220Z 2400/2424 11010KT 9999 BKN018=